Genesee Depot, WI (53127)

5:06 AM CST on February 08, 2016 (GMT -0600)
GENESEE DEPOT, WI 53127 | | Change Station
CLOSE
Current Station
Personal Weather Station
Location: GENESEE DEPOT, WI
Elevation: 931 ft
Nearby Weather Stations

Elev 931 ft 42.97 °N, 88.36 °W | Updated 6 seconds ago

Snow
Snow
30.9 °F
Feels Like 23 °F
N
9.0
Wind Variable Wind from NW
Gusts 14.0 mph

Today
High -- | Low -- °F
--% Chance of Precip.
Yesterday
High -- | Low -- °F
Precip. -- in
Pressure 29.58 in
Visibility 1.5 miles
Clouds Overcast 600 ft
Windchill 23 °F
Dew Point 29 °F
Humidity 92%
Rainfall 0.00 in
Snow Depth Not available.
7:00 AM 5:15 PM
Waning Crescent, 0% visible
METAR KUES 081035Z AUTO 23003KT 1 1/2SM -SN OVC006 M01/M01 A2958 RMK AO2 P0002
Pressure 29.58 in
Visibility 1.5 miles
Clouds Overcast 600 ft
Windchill 23 °F
Dew Point 29 °F
Humidity 92%
Rainfall 0.00 in
Snow Depth Not available.
7:00 AM 5:15 PM
Waning Crescent, 0% visible
METAR KUES 081035Z AUTO 23003KT 1 1/2SM -SN OVC006 M01/M01 A2958 RMK AO2 P0002

10-Day Weather Forecast

Almanac

Astronomy

Feb. 08, 2016 Rise Set
Actual Time
Civil Twilight
Nautical Twilight
Astronomical Twilight
Moon
Length of Visible Light
Length of Day
Tomorrow will be .
, % of the Moon is Illuminated

Today's Extremes

State Highs State Lows

Community

WunderPhotos

Upload Photos

1,891,420 photos uploaded!

WunderBlog® & News

Nearby

Air Quality

  Air Quality AQ Index Pollutant
Not available.

Snow Depth

Station Depth Elevation

Earthquake Activity

City Distance Mag. Time & Date
Minimum magnitude displayed is 2.5.

Coastal Water Temperatures

Place Temperature

Stations

Nearby Weather Stations

Station Location Temp. Windchill Dew Point Humidity Wind Precip. Elev Updated Type
                   

Watches & Warnings

There are currently no watches in effect.